createdAt,value
2018-12-29T00:01:19.952Z,101143.79
2018-12-29T00:04:22.034Z,101147.20
2018-12-29T00:07:23.938Z,101151.85
2018-12-29T00:10:25.913Z,101154.73
2018-12-29T00:13:27.897Z,101152.89
2018-12-29T00:16:29.950Z,101149.88
2018-12-29T00:19:31.959Z,101156.92
2018-12-29T00:22:33.983Z,101156.85
2018-12-29T00:25:35.956Z,101163.77
2018-12-29T00:28:38.004Z,101163.84
2018-12-29T00:31:40.003Z,101166.42
2018-12-29T00:34:42.029Z,101167.03
2018-12-29T00:37:43.980Z,101163.22
2018-12-29T00:40:45.979Z,101169.48
2018-12-29T00:43:47.952Z,101166.78
2018-12-29T00:46:49.963Z,101175.13
2018-12-29T00:49:51.910Z,101177.57
2018-12-29T00:52:53.845Z,101174.77
2018-12-29T00:55:55.809Z,101173.47
2018-12-29T00:58:57.753Z,101179.40
2018-12-29T01:01:59.913Z,101178.25
2018-12-29T01:05:01.953Z,101183.72
2018-12-29T01:08:05.078Z,101190.19
2018-12-29T01:11:06.984Z,101186.23
2018-12-29T01:14:08.911Z,101189.88
2018-12-29T01:17:10.945Z,101188.31
2018-12-29T01:20:13.073Z,101187.02
2018-12-29T01:23:14.975Z,101184.66
2018-12-29T01:26:16.978Z,101182.63
2018-12-29T01:29:18.989Z,101189.30
2018-12-29T01:32:20.945Z,101186.42
2018-12-29T01:35:22.889Z,101187.92
2018-12-29T01:38:24.897Z,101192.25
2018-12-29T01:41:26.823Z,101203.80
2018-12-29T01:44:28.800Z,101195.06
2018-12-29T01:47:30.713Z,101196.42
2018-12-29T01:50:32.654Z,101199.77
2018-12-29T01:53:34.654Z,101193.33
2018-12-29T01:56:36.618Z,101200.84
2018-12-29T01:59:38.508Z,101199.48
2018-12-29T02:02:40.606Z,101197.63
2018-12-29T02:05:42.585Z,101204.78
2018-12-29T02:08:44.529Z,101199.61
2018-12-29T02:11:46.489Z,101196.22
2018-12-29T02:14:48.472Z,101199.94
2018-12-29T02:17:50.462Z,101195.38
2018-12-29T02:20:52.391Z,101198.27
2018-12-29T02:23:54.453Z,101200.53
2018-12-29T02:26:56.457Z,101201.12
2018-12-29T02:29:58.470Z,101210.55
2018-12-29T02:33:00.452Z,101203.55
2018-12-29T02:36:02.594Z,101198.70
2018-12-29T02:39:05.336Z,101200.36
2018-12-29T02:42:07.366Z,101194.89
2018-12-29T02:45:09.299Z,101195.34
2018-12-29T02:48:11.261Z,101187.47
2018-12-29T02:51:13.311Z,101181.47
2018-12-29T02:54:15.346Z,101181.22
2018-12-29T02:57:17.243Z,101176.83
2018-12-29T03:00:19.300Z,101178.48
2018-12-29T03:03:21.439Z,101180.00
2018-12-29T03:06:23.517Z,101176.08
2018-12-29T03:09:25.588Z,101172.56
2018-12-29T03:12:27.500Z,101169.83
2018-12-29T03:15:29.493Z,101171.20
2018-12-29T03:18:31.434Z,101165.73
2018-12-29T03:21:33.685Z,101155.70
2018-12-29T03:24:35.577Z,101161.74
2018-12-29T03:27:37.589Z,101156.45
2018-12-29T03:30:39.483Z,101155.27
2018-12-29T03:33:41.466Z,101155.86
2018-12-29T03:36:43.478Z,101155.97
2018-12-29T03:39:45.381Z,101161.38
2018-12-29T03:42:47.616Z,101153.16
2018-12-29T03:45:49.609Z,101157.72
2018-12-29T03:48:51.604Z,101156.67
2018-12-29T03:51:53.628Z,101155.44
2018-12-29T03:54:55.511Z,101153.93
2018-12-29T03:57:57.518Z,101150.10
2018-12-29T04:00:59.479Z,101159.53
2018-12-29T04:04:01.559Z,101155.42
2018-12-29T04:07:03.565Z,101156.72
2018-12-29T04:10:09.169Z,101154.28
2018-12-29T04:13:11.115Z,101153.91
2018-12-29T04:16:13.046Z,101152.39
2018-12-29T04:19:15.036Z,101157.12
2018-12-29T04:22:17.051Z,101156.97
2018-12-29T04:25:20.790Z,101163.64
2018-12-29T04:28:23.116Z,101160.91
2018-12-29T04:31:25.013Z,101169.11
2018-12-29T04:34:26.960Z,101171.84
2018-12-29T04:37:29.001Z,101165.99
2018-12-29T04:40:30.891Z,101170.62
2018-12-29T04:43:32.874Z,101174.66
2018-12-29T04:46:34.833Z,101168.73
2018-12-29T04:49:36.755Z,101175.68
2018-12-29T04:52:38.734Z,101176.66
2018-12-29T04:55:40.650Z,101174.25
2018-12-29T04:58:42.595Z,101180.33
2018-12-29T05:01:44.555Z,101174.40
2018-12-29T05:04:46.640Z,101168.31
2018-12-29T05:07:48.638Z,101168.92
2018-12-29T05:10:50.521Z,101171.56
2018-12-29T05:13:52.578Z,101168.58
2018-12-29T05:16:54.748Z,101182.39
2018-12-29T05:19:56.737Z,101174.98
2018-12-29T05:22:58.687Z,101179.20
2018-12-29T05:26:00.744Z,101180.56
2018-12-29T05:29:02.695Z,101181.25
2018-12-29T05:32:04.715Z,101179.34
2018-12-29T05:35:06.772Z,101188.63
2018-12-29T05:38:08.743Z,101186.36
2018-12-29T05:41:10.768Z,101187.80
2018-12-29T05:44:12.664Z,101192.41
2018-12-29T05:47:14.647Z,101186.79
2018-12-29T05:50:16.626Z,101188.38
2018-12-29T05:53:21.593Z,101190.42
2018-12-29T05:56:23.696Z,101185.57
2018-12-29T05:59:25.775Z,101188.04
2018-12-29T06:02:27.738Z,101185.38
2018-12-29T06:05:30.887Z,101183.48
2018-12-29T06:08:32.915Z,101186.21
2018-12-29T06:11:34.899Z,101193.33
2018-12-29T06:14:37.631Z,101191.97
2018-12-29T06:17:39.643Z,101197.61
2018-12-29T06:20:41.686Z,101201.17
2018-12-29T06:23:43.617Z,101202.47
2018-12-29T06:26:45.672Z,101200.81
2018-12-29T06:29:47.658Z,101203.54
2018-12-29T06:32:49.684Z,101204.00
2018-12-29T06:35:51.668Z,101201.56
2018-12-29T06:38:54.111Z,101203.91
2018-12-29T06:41:56.072Z,101207.25
2018-12-29T06:44:58.124Z,101208.08
2018-12-29T06:48:00.072Z,101208.52
2018-12-29T06:51:02.159Z,101212.16
2018-12-29T06:54:04.165Z,101210.50
2018-12-29T06:57:06.108Z,101206.86
2018-12-29T07:00:08.036Z,101215.14
2018-12-29T07:03:10.105Z,101208.98
2018-12-29T07:06:12.130Z,101212.94
2018-12-29T07:09:14.147Z,101211.89
2018-12-29T07:12:16.118Z,101209.59
2018-12-29T07:15:18.042Z,101211.55
2018-12-29T07:18:20.047Z,101211.55
2018-12-29T07:21:22.091Z,101209.35
2018-12-29T07:24:24.121Z,101213.53
2018-12-29T07:27:26.040Z,101213.59
2018-12-29T07:30:27.990Z,101212.84
2018-12-29T07:33:29.972Z,101206.98
2018-12-29T07:36:31.956Z,101203.73
2018-12-29T07:39:33.965Z,101202.95
2018-12-29T07:42:36.030Z,101199.39
2018-12-29T07:45:38.173Z,101198.02
2018-12-29T07:48:40.113Z,101207.81
2018-12-29T07:51:42.061Z,101195.86
2018-12-29T07:54:44.147Z,101204.22
2018-12-29T07:57:46.114Z,101203.41
2018-12-29T08:00:48.153Z,101215.33
2018-12-29T08:03:50.093Z,101214.80
2018-12-29T08:06:52.077Z,101215.76
2018-12-29T08:09:53.990Z,101221.91
2018-12-29T08:12:56.009Z,101220.54
2018-12-29T08:15:58.075Z,101218.09
2018-12-29T08:19:00.517Z,101214.53
2018-12-29T08:22:02.751Z,101221.19
2018-12-29T08:25:04.857Z,101219.28
2018-12-29T08:28:06.919Z,101219.89
2018-12-29T08:31:08.869Z,101222.34
2018-12-29T08:34:10.854Z,101228.42
2018-12-29T08:37:12.857Z,101230.91
2018-12-29T08:40:14.914Z,101227.95
2018-12-29T08:43:16.894Z,101233.89
2018-12-29T08:46:19.024Z,101231.58
2018-12-29T08:49:20.980Z,101234.94
2018-12-29T08:52:23.363Z,101236.45
2018-12-29T08:55:25.292Z,101236.16
2018-12-29T08:58:27.339Z,101235.48
2018-12-29T09:01:29.393Z,101234.47
2018-12-29T09:04:31.472Z,101231.40
2018-12-29T09:07:33.397Z,101229.81
2018-12-29T09:10:35.348Z,101235.45
2018-12-29T09:13:37.710Z,101231.95
2018-12-29T09:16:39.707Z,101236.67
2018-12-29T09:19:41.921Z,101234.06
2018-12-29T09:22:44.027Z,101228.45
2018-12-29T09:25:46.041Z,101222.98
2018-12-29T09:28:48.059Z,101217.98
2018-12-29T09:31:49.993Z,101212.66
2018-12-29T09:34:52.016Z,101220.72
2018-12-29T09:37:54.062Z,101222.03
2018-12-29T09:40:56.131Z,101214.10
2018-12-29T09:43:58.131Z,101204.52
2018-12-29T09:47:00.207Z,101203.44
2018-12-29T09:50:02.235Z,101208.38
2018-12-29T09:53:04.203Z,101204.61
2018-12-29T09:56:06.182Z,101210.63
2018-12-29T09:59:08.179Z,101198.56
2018-12-29T10:02:10.286Z,101203.14
2018-12-29T10:05:12.263Z,101202.77
2018-12-29T10:08:14.277Z,101192.28
2018-12-29T10:11:16.290Z,101193.66
2018-12-29T10:14:18.195Z,101188.43
2018-12-29T10:17:26.788Z,101180.82
2018-12-29T10:20:24.151Z,101179.45
2018-12-29T10:23:26.279Z,101170.15
2018-12-29T10:26:28.488Z,101179.89
2018-12-29T10:29:30.588Z,101178.50
2018-12-29T10:32:32.852Z,101176.81
2018-12-29T10:35:34.973Z,101170.55
2018-12-29T10:38:36.904Z,101173.64
2018-12-29T10:41:38.952Z,101166.70
2018-12-29T10:44:40.942Z,101168.07
2018-12-29T10:47:42.886Z,101172.21
2018-12-29T10:50:44.938Z,101175.02
2018-12-29T10:53:47.023Z,101166.91
2018-12-29T10:56:49.102Z,101165.55
2018-12-29T10:59:51.107Z,101163.64
2018-12-29T11:02:53.018Z,101159.18
2018-12-29T11:05:55.054Z,101149.83
2018-12-29T11:08:57.038Z,101144.66
2018-12-29T11:11:58.937Z,101154.05
2018-12-29T11:15:00.884Z,101147.62
2018-12-29T11:18:02.771Z,101145.91
2018-12-29T11:21:04.814Z,101144.41
2018-12-29T11:24:06.923Z,101140.12
2018-12-29T11:27:08.968Z,101144.17
2018-12-29T11:30:11.009Z,101138.28
2018-12-29T11:33:13.108Z,101139.88
2018-12-29T11:36:15.287Z,101146.92
2018-12-29T11:39:17.889Z,101142.97
2018-12-29T11:42:19.943Z,101132.67
2018-12-29T11:45:21.874Z,101137.06
2018-12-29T11:48:23.916Z,101129.50
2018-12-29T11:51:25.956Z,101129.76
2018-12-29T11:54:28.001Z,101139.75
2018-12-29T11:57:29.922Z,101138.23
2018-12-29T12:00:31.814Z,101133.38
2018-12-29T12:03:33.765Z,101128.55
2018-12-29T12:06:35.796Z,101126.59
2018-12-29T12:09:37.825Z,101121.59
2018-12-29T12:12:39.830Z,101131.78
2018-12-29T12:15:41.833Z,101126.91
2018-12-29T12:18:43.758Z,101124.64
2018-12-29T12:21:49.830Z,101126.64
2018-12-29T12:29:12.626Z,101126.48
2018-12-29T12:32:14.970Z,101107.48
2018-12-29T12:35:16.983Z,101110.72
2018-12-29T12:38:19.123Z,101110.35
2018-12-29T12:41:21.096Z,101109.21
2018-12-29T12:44:23.010Z,101099.14
2018-12-29T12:47:24.959Z,101110.98
2018-12-29T12:50:26.898Z,101101.58
2018-12-29T12:53:28.881Z,101100.58
2018-12-29T12:56:30.907Z,101103.17
2018-12-29T12:59:32.934Z,101105.13
2018-12-29T13:02:35.013Z,101107.28
2018-12-29T13:05:37.014Z,101097.97
2018-12-29T13:08:39.251Z,101101.97
2018-12-29T13:11:41.226Z,101096.20
2018-12-29T13:14:44.267Z,101089.30
2018-12-29T13:17:46.288Z,101082.00
2018-12-29T13:20:48.371Z,101080.91
2018-12-29T13:23:50.409Z,101085.94
2018-12-29T13:26:52.559Z,101084.85
2018-12-29T13:29:54.748Z,101091.87
2018-12-29T13:32:57.006Z,101082.84
2018-12-29T13:35:59.189Z,101084.91
2018-12-29T13:39:01.549Z,101084.34
2018-12-29T13:42:03.589Z,101087.20
2018-12-29T13:45:05.966Z,101084.95
2018-12-29T13:48:07.951Z,101089.00
2018-12-29T13:51:09.943Z,101084.89
2018-12-29T13:54:12.041Z,101091.31
2018-12-29T13:57:13.967Z,101087.48
2018-12-29T14:00:15.929Z,101089.62
2018-12-29T14:03:17.964Z,101088.85
2018-12-29T14:19:11.326Z,101088.13
2018-12-29T14:22:13.361Z,101094.81
2018-12-29T14:25:31.245Z,101086.34
2018-12-29T14:28:33.177Z,101083.44
2018-12-29T14:31:35.107Z,101083.44
2018-12-29T14:34:37.181Z,101082.19
2018-12-29T14:37:39.230Z,101078.36
2018-12-29T14:40:41.187Z,101075.91
2018-12-29T14:43:57.132Z,101077.59
2018-12-29T14:46:59.104Z,101070.34
2018-12-29T14:50:01.009Z,101069.83
2018-12-29T14:53:03.074Z,101070.60
2018-12-29T14:56:05.319Z,101067.37
2018-12-29T14:59:07.336Z,101067.43
2018-12-29T15:02:09.589Z,101061.64
2018-12-29T15:05:11.625Z,101070.71
2018-12-29T15:08:13.646Z,101078.53
2018-12-29T15:11:15.679Z,101077.02
2018-12-29T15:14:17.727Z,101080.16
2018-12-29T15:17:20.212Z,101075.08
2018-12-29T15:20:22.204Z,101073.77
2018-12-29T15:23:24.168Z,101073.59
2018-12-29T15:26:26.095Z,101073.22
2018-12-29T15:29:28.061Z,101077.33
2018-12-29T15:32:29.983Z,101078.36
2018-12-29T15:35:32.368Z,101085.20
2018-12-29T15:38:34.734Z,101088.23
2018-12-29T15:41:36.687Z,101081.98
2018-12-29T15:44:39.106Z,101079.45
2018-12-29T15:47:41.640Z,101081.05
2018-12-29T15:50:43.587Z,101079.61
2018-12-29T15:53:45.548Z,101082.84
2018-12-29T15:56:49.387Z,101085.47
2018-12-29T15:59:51.326Z,101079.47
2018-12-29T16:02:53.249Z,101077.84
2018-12-29T16:05:55.183Z,101075.70
2018-12-29T16:08:57.242Z,101071.48
2018-12-29T16:11:59.878Z,101073.94
2018-12-29T16:15:01.806Z,101061.23
2018-12-29T16:18:03.889Z,101059.05
2018-12-29T16:21:05.785Z,101063.06
2018-12-29T16:24:07.751Z,101053.91
2018-12-29T16:27:09.615Z,101058.20
2018-12-29T16:30:11.555Z,101060.55
2018-12-29T16:33:13.641Z,101054.47
2018-12-29T16:36:16.383Z,101043.72
2018-12-29T16:39:18.480Z,101041.55
2018-12-29T16:42:20.336Z,101048.59
2018-12-29T16:45:22.317Z,101044.77
2018-12-29T16:48:24.241Z,101044.00
2018-12-29T16:51:26.796Z,101044.28
2018-12-29T16:54:28.701Z,101039.83
2018-12-29T16:57:30.680Z,101033.53
2018-12-29T17:00:32.621Z,101027.17
2018-12-29T17:03:34.534Z,101026.69
2018-12-29T17:06:36.585Z,101026.75
2018-12-29T17:09:38.609Z,101025.38
2018-12-29T17:12:40.512Z,101017.70
2018-12-29T17:15:42.771Z,101019.36
2018-12-29T17:18:44.861Z,101009.23
2018-12-29T17:21:47.475Z,101012.23
2018-12-29T17:24:49.564Z,101011.62
2018-12-29T17:27:51.582Z,101002.05
2018-12-29T17:30:53.718Z,100993.72
2018-12-29T17:33:55.782Z,100992.95
2018-12-29T17:36:57.884Z,100995.38
2018-12-29T17:40:00.078Z,100984.42
2018-12-29T17:43:03.611Z,100982.17
2018-12-29T17:46:26.086Z,100982.97
2018-12-29T17:49:28.124Z,100972.31
2018-12-29T17:52:33.004Z,100968.02
2018-12-29T17:55:35.567Z,100972.39
2018-12-29T17:58:37.509Z,100965.30
2018-12-29T18:01:39.457Z,100960.19
2018-12-29T18:04:41.382Z,100963.98
2018-12-29T18:07:43.304Z,100962.02
2018-12-29T18:10:45.347Z,100948.05
2018-12-29T18:13:47.305Z,100945.65
2018-12-29T18:16:49.688Z,100944.70
2018-12-29T18:19:51.988Z,100942.45
2018-12-29T18:22:55.135Z,100931.34
2018-12-29T18:25:57.908Z,100919.14
2018-12-29T18:29:00.139Z,100921.05
2018-12-29T18:32:02.066Z,100924.67
2018-12-29T18:35:04.377Z,100923.95
2018-12-29T18:38:06.307Z,100926.69
2018-12-29T18:41:08.377Z,100916.77
2018-12-29T18:44:10.878Z,100920.88
2018-12-29T18:47:12.826Z,100919.91
2018-12-29T18:50:14.744Z,100916.97
2018-12-29T18:53:16.786Z,100910.00
2018-12-29T18:56:18.827Z,100908.09
2018-12-29T18:59:20.796Z,100905.92
2018-12-29T19:02:23.251Z,100906.23
2018-12-29T19:05:25.238Z,100901.36
2018-12-29T19:08:27.230Z,100900.66
2018-12-29T19:11:29.209Z,100902.24
2018-12-29T19:14:31.228Z,100900.27
2018-12-29T19:17:33.158Z,100898.31
2018-12-29T19:20:35.988Z,100906.34
2018-12-29T19:23:39.699Z,100903.61
2018-12-29T19:26:42.011Z,100900.22
2018-12-29T19:29:43.938Z,100897.53
2018-12-29T19:32:46.638Z,100899.67
2018-12-29T19:35:48.592Z,100900.02
2018-12-29T19:38:51.149Z,100901.44
2018-12-29T19:41:54.996Z,100894.85
2018-12-29T19:44:57.148Z,100896.22
2018-12-29T19:47:59.038Z,100887.41
2018-12-29T19:51:02.361Z,100890.69
2018-12-29T19:54:04.873Z,100884.83
2018-12-29T19:57:06.847Z,100890.73
2018-12-29T20:00:09.782Z,100886.77
2018-12-29T20:03:12.309Z,100881.28
2018-12-29T20:06:15.093Z,100879.97
2018-12-29T20:09:17.029Z,100878.16
2018-12-29T20:12:19.422Z,100874.86
2018-12-29T20:15:21.480Z,100874.31
2018-12-29T20:18:23.397Z,100870.27
2018-12-29T20:21:25.381Z,100866.00
2018-12-29T20:24:27.718Z,100865.06
2018-12-29T20:27:29.737Z,100849.23
2018-12-29T20:30:32.712Z,100848.95
2018-12-29T20:33:35.883Z,100837.88
2018-12-29T20:36:38.385Z,100839.52
2018-12-29T20:39:40.417Z,100834.94
2018-12-29T20:42:42.508Z,100833.68
2018-12-29T20:45:44.497Z,100836.90
2018-12-29T20:48:47.047Z,100832.31
2018-12-29T20:51:49.985Z,100822.73
2018-12-29T20:54:53.162Z,100826.47
2018-12-29T20:57:55.144Z,100803.59
2018-12-29T21:00:57.057Z,100807.93
2018-12-29T21:03:59.067Z,100812.14
2018-12-29T21:07:03.697Z,100800.47
2018-12-29T21:10:08.079Z,100792.00
2018-12-29T21:13:11.902Z,100787.95
2018-12-29T21:16:15.347Z,100777.11
2018-12-29T21:19:19.617Z,100772.46
2018-12-29T21:22:23.888Z,100769.98
2018-12-29T21:25:26.554Z,100754.13
2018-12-29T21:28:28.942Z,100755.12
2018-12-29T21:31:30.978Z,100739.20
2018-12-29T21:34:33.284Z,100738.60
2018-12-29T21:37:37.320Z,100729.23
2018-12-29T21:40:39.354Z,100723.17
2018-12-29T21:43:42.961Z,100714.38
2018-12-29T21:46:45.087Z,100709.66
2018-12-29T21:52:49.251Z,100700.27
2018-12-29T21:55:51.421Z,100691.63
2018-12-29T21:58:53.287Z,100682.75
2018-12-29T22:01:55.198Z,100679.20
2018-12-29T22:04:57.100Z,100678.94
2018-12-29T22:07:58.986Z,100671.22
2018-12-29T22:11:00.910Z,100663.30
2018-12-29T22:14:02.837Z,100662.63
2018-12-29T22:17:04.921Z,100651.31
2018-12-29T22:20:06.997Z,100650.33
2018-12-29T22:23:08.915Z,100642.08
2018-12-29T22:26:10.902Z,100615.19
2018-12-29T22:29:12.816Z,100592.73
2018-12-29T22:32:14.739Z,100614.03
2018-12-29T22:35:16.844Z,100609.13
2018-12-29T22:38:18.799Z,100604.36
2018-12-29T22:44:36.059Z,100591.56
2018-12-29T22:47:37.950Z,100589.21
2018-12-29T22:50:41.083Z,100582.97
2018-12-29T22:53:43.554Z,100587.23
2018-12-29T22:56:45.697Z,100588.41
2018-12-29T22:59:47.582Z,100583.59
2018-12-29T23:02:49.432Z,100579.10
2018-12-29T23:05:51.630Z,100577.91
2018-12-29T23:08:53.693Z,100571.39
2018-12-29T23:11:55.616Z,100572.00
2018-12-29T23:14:57.489Z,100572.00
2018-12-29T23:17:59.423Z,100565.17
2018-12-29T23:21:01.314Z,100566.70
2018-12-29T23:24:03.255Z,100556.86
2018-12-29T23:27:06.582Z,100551.95
2018-12-29T23:30:08.945Z,100555.50
2018-12-29T23:33:11.297Z,100551.69
2018-12-29T23:36:13.273Z,100549.44
2018-12-29T23:39:15.262Z,100548.08
2018-12-29T23:42:17.904Z,100545.06
2018-12-29T23:45:19.790Z,100546.12
2018-12-29T23:48:22.169Z,100545.06
2018-12-29T23:51:24.139Z,100533.06
2018-12-29T23:54:26.054Z,100532.47
2018-12-29T23:57:28.590Z,100527.49
